Time;durP1;ratioP1;P1;durP2;ratioP2;P2;SDS_P1;SDS_P2;PMS_P1;PMS_P2;Temp;Humidity;BMP_temperature;BMP_pressure;BME280_temperature;BME280_humidity;BME280_pressure;Samples;Min_cycle;Max_cycle;Signal;HPM_P1;HPM_P2
2023/10/12 00:01:32;;;;;;;6.95;3.40;;;;;;;20.51;57.33;99903.34;10344054;28;20755;-56
2023/10/12 00:06:37;;;;;;;7.43;4.68;;;;;;;20.46;57.20;99898.53;10336187;28;20135;-56
2023/10/12 00:11:40;;;;;;;11.00;4.07;;;;;;;20.44;57.56;99895.19;10341031;28;20127;-56
2023/10/12 00:16:43;;;;;;;10.27;4.03;;;;;;;20.40;58.26;99896.63;10336358;28;20057;-56
2023/10/12 00:21:46;;;;;;;9.03;3.90;;;;;;;20.35;58.17;99901.75;10335305;28;20210;-55
2023/10/12 00:26:47;;;;;;;5.90;3.40;;;;;;;20.33;57.94;99890.31;10334752;28;20053;-55
2023/10/12 00:31:49;;;;;;;8.35;3.67;;;;;;;20.28;57.79;99887.34;10342713;28;20598;-56
2023/10/12 00:36:57;;;;;;;7.63;4.22;;;;;;;20.27;57.74;99893.81;10350589;28;20057;-56
2023/10/12 00:41:59;;;;;;;7.13;4.65;;;;;;;20.22;58.63;99890.84;10344599;28;20046;-56
2023/10/12 00:47:10;;;;;;;9.30;4.50;;;;;;;20.19;58.30;99894.78;10339978;28;20069;-56
2023/10/12 00:52:22;;;;;;;11.38;5.25;;;;;;;20.20;58.32;99884.81;10342457;28;20053;-55
2023/10/12 00:57:24;;;;;;;7.40;3.60;;;;;;;20.14;58.39;99871.03;10350352;28;20048;-57
2023/10/12 01:02:32;;;;;;;9.00;4.20;;;;;;;20.09;58.60;99862.69;10340823;28;20794;-56
2023/10/12 01:07:34;;;;;;;7.43;3.80;;;;;;;20.14;58.41;99865.63;10340605;28;20057;-56
2023/10/12 01:12:37;;;;;;;8.18;3.55;;;;;;;20.09;58.87;99864.56;10340125;28;20060;-56
2023/10/12 01:17:40;;;;;;;8.13;4.53;;;;;;;20.05;58.27;99871.38;10337902;28;20057;-56
2023/10/12 01:22:42;;;;;;;6.93;3.95;;;;;;;19.98;58.95;99873.19;10338626;28;20044;-56
2023/10/12 01:27:44;;;;;;;8.70;3.97;;;;;;;19.99;59.34;99867.59;10336685;28;20325;-55
2023/10/12 01:32:51;;;;;;;5.72;3.80;;;;;;;19.88;58.86;99860.03;10335525;28;20072;-55
2023/10/12 01:38:00;;;;;;;6.10;3.95;;;;;;;19.95;58.99;99875.25;10338276;28;20209;-56
2023/10/12 01:43:02;;;;;;;9.07;4.63;;;;;;;19.86;58.99;99854.81;10337005;28;20189;-56
2023/10/12 01:48:16;;;;;;;8.52;3.65;;;;;;;19.85;59.15;99855.00;10342023;28;20805;-56
2023/10/12 01:58:27;;;;;;;8.32;4.70;;;;;;;19.84;59.09;99856.03;10327367;28;20096;-56
2023/10/12 02:03:32;;;;;;;7.53;4.22;;;;;;;19.85;58.97;99860.41;10344421;28;20095;-56
2023/10/12 02:08:39;;;;;;;7.45;3.72;;;;;;;19.87;59.13;99863.75;10336441;28;20053;-56
2023/10/12 02:13:47;;;;;;;11.65;4.25;;;;;;;19.79;59.39;99853.91;10337066;28;20081;-56
2023/10/12 02:18:48;;;;;;;4.90;3.40;;;;;;;19.72;58.76;99840.31;10327836;28;20072;-55
2023/10/12 02:29:11;;;;;;;6.05;4.13;;;;;;;19.66;59.20;99853.75;10329445;28;20087;-55
2023/10/12 02:34:16;;;;;;;9.13;3.83;;;;;;;19.71;59.21;99865.66;10351832;28;20144;-55
2023/10/12 02:39:21;;;;;;;10.02;4.15;;;;;;;19.49;59.25;99861.28;10342342;28;20201;-54
2023/10/12 02:44:23;;;;;;;7.05;3.95;;;;;;;19.61;59.13;99901.06;10337964;28;20202;-56
2023/10/12 02:49:25;;;;;;;8.20;3.97;;;;;;;19.52;59.46;99904.09;10331869;28;20081;-55
2023/10/12 02:54:42;;;;;;;9.77;3.92;;;;;;;19.52;59.91;99909.47;10331606;28;20058;-55
2023/10/12 02:59:56;;;;;;;10.10;4.05;;;;;;;19.47;59.75;99895.69;10335856;28;20441;-56
2023/10/12 03:05:06;;;;;;;6.78;3.92;;;;;;;19.50;59.83;99900.72;10333078;28;20050;-56
2023/10/12 03:10:24;;;;;;;9.80;4.07;;;;;;;19.45;59.88;99897.75;10331713;28;20222;-55
2023/10/12 03:15:41;;;;;;;8.40;3.90;;;;;;;19.36;60.25;99878.97;10335182;28;20561;-56
2023/10/12 03:21:01;;;;;;;8.35;4.28;;;;;;;19.34;60.21;99894.53;10337241;28;20052;-56
2023/10/12 03:26:18;;;;;;;6.10;4.22;;;;;;;19.38;61.11;99909.31;10334483;28;20041;-56
2023/10/12 03:31:26;;;;;;;9.10;5.13;;;;;;;19.33;60.66;99911.75;10336480;28;20367;-56
2023/10/12 03:36:36;;;;;;;7.93;4.85;;;;;;;19.29;60.53;99915.84;10336868;28;20457;-56
2023/10/12 03:41:46;;;;;;;6.82;3.40;;;;;;;19.29;61.00;99937.44;10332859;28;20057;-55
2023/10/12 03:46:59;;;;;;;8.52;3.88;;;;;;;19.29;60.83;99932.06;10340443;28;20064;-55
2023/10/12 03:52:09;;;;;;;8.18;5.10;;;;;;;19.26;60.86;99927.03;10339708;28;20239;-56
2023/10/12 03:57:20;;;;;;;7.88;3.97;;;;;;;19.26;60.73;99954.00;10336188;28;20441;-56
2023/10/12 04:02:24;;;;;;;8.63;3.50;;;;;;;19.26;60.49;99943.22;10334728;28;20229;-56
2023/10/12 04:07:39;;;;;;;7.22;3.35;;;;;;;19.35;60.27;99946.63;10337488;28;20069;-57
2023/10/12 04:12:54;;;;;;;8.18;3.80;;;;;;;19.39;60.62;99931.75;10332125;28;20125;-56
2023/10/12 04:17:59;;;;;;;5.63;3.40;;;;;;;19.36;60.47;99968.03;10332153;28;20045;-56
2023/10/12 04:23:34;;;;;;;7.22;4.53;;;;;;;19.34;60.31;99953.06;10331124;28;20494;-56
2023/10/12 04:28:32;;;;;;;7.82;4.03;;;;;;;19.34;60.86;99940.41;10337052;28;20080;-56
2023/10/12 04:33:44;;;;;;;8.80;3.50;;;;;;;19.35;60.96;99974.47;10337456;28;20264;-56
2023/10/12 04:38:56;;;;;;;7.93;3.90;;;;;;;19.32;60.96;99980.25;10331146;28;20068;-56
2023/10/12 04:44:06;;;;;;;6.38;4.15;;;;;;;19.32;60.95;99982.94;10331124;28;20075;-57
2023/10/12 04:54:23;;;;;;;9.88;3.85;;;;;;;19.04;60.94;99951.22;10327237;28;20507;-56
2023/10/12 04:59:29;;;;;;;8.48;4.28;;;;;;;19.19;61.33;99993.56;10349039;28;20084;-55
2023/10/12 05:09:58;;;;;;;7.70;3.88;;;;;;;19.21;61.76;99962.66;10316889;28;20106;-57
2023/10/12 05:15:11;;;;;;;8.02;3.53;;;;;;;19.21;62.48;99959.13;10342197;28;20053;-56
2023/10/12 05:20:12;;;;;;;8.93;3.97;;;;;;;19.22;61.35;99958.94;10345822;28;20067;-56
2023/10/12 05:25:14;;;;;;;8.55;4.63;;;;;;;19.04;61.80;99956.63;10342884;28;21306;-55
2023/10/12 05:30:19;;;;;;;10.07;4.18;;;;;;;19.13;63.11;99965.44;10351540;28;20324;-56
2023/10/12 05:35:48;;;;;;;9.50;4.55;;;;;;;19.11;62.14;99972.03;10352423;28;20843;-55
2023/10/12 05:40:53;;;;;;;6.10;3.65;;;;;;;19.10;62.30;99967.69;10340717;28;20580;-57
2023/10/12 05:45:54;;;;;;;8.52;3.75;;;;;;;19.03;62.46;99968.41;10351722;28;20418;-57
2023/10/12 05:50:56;;;;;;;7.57;4.07;;;;;;;18.99;63.38;99932.06;10339550;28;20442;-56
2023/10/12 05:55:58;;;;;;;9.45;4.43;;;;;;;18.86;64.38;100020.88;10352055;28;20539;-55
2023/10/12 06:01:08;;;;;;;6.38;3.88;;;;;;;19.03;64.79;99999.97;10349429;28;20128;-56
2023/10/12 06:06:10;;;;;;;10.45;4.15;;;;;;;18.98;65.75;100038.28;10341155;28;20052;-57
2023/10/12 06:11:12;;;;;;;6.85;3.53;;;;;;;18.94;64.31;99999.19;10343873;28;20082;-55
2023/10/12 06:16:20;;;;;;;9.98;4.50;;;;;;;19.14;66.35;100075.03;10343592;28;20053;-56
2023/10/12 06:21:23;;;;;;;13.55;5.15;;;;;;;19.21;65.84;100037.34;10342753;28;20056;-57
2023/10/12 06:26:34;;;;;;;8.43;4.40;;;;;;;19.22;65.95;100071.41;10335076;28;20536;-56
2023/10/12 06:31:36;;;;;;;8.45;4.70;;;;;;;19.16;66.22;100116.16;10336872;28;20712;-56
2023/10/12 06:36:38;;;;;;;7.68;3.70;;;;;;;19.17;65.94;100127.78;10342186;28;20064;-57
2023/10/12 06:46:46;;;;;;;9.38;4.45;;;;;;;19.20;66.30;100106.69;10341456;28;20123;-54
2023/10/12 06:51:54;;;;;;;9.25;4.50;;;;;;;19.23;65.53;100122.50;10345381;28;20069;-56
2023/10/12 06:57:12;;;;;;;13.73;5.10;;;;;;;19.16;65.14;100126.13;10349746;28;20127;-57
2023/10/12 07:02:20;;;;;;;9.52;4.65;;;;;;;19.13;64.16;100134.59;10345497;28;20150;-56
2023/10/12 07:07:27;;;;;;;7.82;4.82;;;;;;;19.15;64.55;100109.06;10335049;28;20515;-58
2023/10/12 07:12:28;;;;;;;8.73;5.40;;;;;;;19.12;64.80;100109.44;10350796;28;20049;-55
2023/10/12 07:17:33;;;;;;;9.48;5.38;;;;;;;19.20;64.50;100127.41;10346086;28;20911;-57
2023/10/12 07:22:36;;;;;;;8.88;4.32;;;;;;;19.07;63.90;100093.81;10340399;28;20054;-56
2023/10/12 07:27:49;;;;;;;8.60;4.30;;;;;;;19.15;64.56;100108.25;10345367;28;20494;-57
2023/10/12 07:32:55;;;;;;;8.38;4.68;;;;;;;19.16;64.04;100153.09;10340150;28;20794;-63
2023/10/12 07:37:58;;;;;;;11.30;5.03;;;;;;;19.02;64.75;100116.94;10339591;28;20054;-58
2023/10/12 07:43:04;;;;;;;9.77;4.32;;;;;;;19.14;64.98;100118.22;10348660;28;20096;-56
2023/10/12 07:48:09;;;;;;;10.05;5.47;;;;;;;19.15;65.56;100135.22;10334549;28;20196;-56
2023/10/12 07:53:23;;;;;;;5.55;4.05;;;;;;;19.04;65.45;100131.94;10347581;28;20124;-55
2023/10/12 07:58:25;;;;;;;6.70;3.93;;;;;;;19.06;65.41;100086.72;10346332;28;20160;-56
2023/10/12 08:03:36;;;;;;;12.93;5.20;;;;;;;19.07;66.10;100096.50;10344195;28;20562;-56
2023/10/12 08:08:38;;;;;;;8.15;4.30;;;;;;;19.17;67.01;100106.19;10342498;28;20053;-56
2023/10/12 08:13:47;;;;;;;11.02;4.95;;;;;;;19.15;66.88;100119.03;10343497;28;20243;-55
2023/10/12 08:39:39;;;;;;;12.15;5.28;;;;;;;19.00;67.63;100138.72;10340752;28;20143;-55
2023/10/12 08:44:55;;;;;;;14.95;5.75;;;;;;;19.03;68.44;100170.72;10346389;28;20115;-56
2023/10/12 08:55:11;;;;;;;8.07;4.47;;;;;;;19.14;70.27;100171.31;10354166;28;20147;-56
2023/10/12 09:00:39;;;;;;;8.80;5.30;;;;;;;19.22;70.79;100157.75;10349890;28;20092;-55
2023/10/12 09:05:41;;;;;;;7.78;4.75;;;;;;;19.21;70.92;100161.47;10349170;28;20060;-55
2023/10/12 09:16:09;;;;;;;9.20;5.57;;;;;;;19.21;73.37;100186.59;10349134;28;20159;-56
2023/10/12 09:26:32;;;;;;;10.40;5.45;;;;;;;19.16;75.62;100145.00;10349367;28;20108;-55
2023/10/12 09:36:53;;;;;;;10.50;6.10;;;;;;;19.14;78.19;100161.38;10351184;28;20079;-56
2023/10/12 09:42:09;;;;;;;9.73;6.00;;;;;;;19.17;78.44;100179.91;10352162;28;20073;-55
2023/10/12 09:47:16;;;;;;;8.73;6.05;;;;;;;19.21;79.67;100183.06;10349552;28;20037;-55
2023/10/12 09:52:21;;;;;;;12.20;7.05;;;;;;;19.13;79.28;100170.47;10346859;28;20041;-55
2023/10/12 09:57:27;;;;;;;11.77;7.10;;;;;;;19.16;81.16;100166.59;10360205;28;20522;-55
2023/10/12 10:02:28;;;;;;;14.00;7.70;;;;;;;19.18;80.34;100154.56;10343712;28;20139;-55
2023/10/12 10:07:36;;;;;;;11.70;6.80;;;;;;;19.20;80.46;100151.69;10347994;28;20154;-55
2023/10/12 10:12:42;;;;;;;13.68;6.80;;;;;;;19.06;78.28;100140.69;10347881;28;20045;-56
2023/10/12 10:17:52;;;;;;;9.38;6.28;;;;;;;18.94;77.28;100144.84;10344994;28;20054;-57
2023/10/12 10:22:56;;;;;;;9.25;5.93;;;;;;;18.80;77.23;100141.03;10338980;28;20166;-58
2023/10/12 10:28:13;;;;;;;14.52;7.30;;;;;;;18.79;78.33;100163.63;10341272;28;20060;-57
2023/10/12 10:33:22;;;;;;;11.18;6.32;;;;;;;18.86;79.33;100163.78;10343660;28;20053;-57
2023/10/12 10:38:34;;;;;;;10.18;7.07;;;;;;;18.90;78.96;100162.41;10343071;28;20097;-55
2023/10/12 10:43:37;;;;;;;8.88;6.32;;;;;;;18.84;78.93;100174.72;10342255;28;20557;-57
2023/10/12 10:48:40;;;;;;;9.48;6.68;;;;;;;18.74;78.96;100176.81;10352469;28;21260;-56
2023/10/12 10:53:52;;;;;;;9.90;6.65;;;;;;;18.70;80.16;100167.41;10353391;28;20133;-59
2023/10/12 10:58:59;;;;;;;9.27;6.50;;;;;;;18.75;78.29;100170.41;10342721;28;20048;-56
2023/10/12 11:04:01;;;;;;;9.68;6.47;;;;;;;18.85;79.37;100183.63;10337412;28;20665;-56
2023/10/12 11:09:07;;;;;;;12.98;7.65;;;;;;;18.85;79.31;100168.31;10337586;28;20191;-56
2023/10/12 11:14:10;;;;;;;11.05;6.78;;;;;;;18.86;79.68;100166.50;10341888;28;20538;-54
2023/10/12 11:19:12;;;;;;;11.93;7.57;;;;;;;18.83;78.27;100191.09;10341297;28;20049;-55
2023/10/12 11:24:14;;;;;;;11.07;7.13;;;;;;;18.78;79.24;100171.88;10339323;28;20073;-57
2023/10/12 11:29:15;;;;;;;10.73;6.97;;;;;;;18.80;79.47;100176.09;10340497;28;20056;-54
2023/10/12 11:34:23;;;;;;;8.95;6.90;;;;;;;18.80;81.38;100161.78;10340865;28;20062;-54
2023/10/12 11:39:28;;;;;;;9.20;7.32;;;;;;;18.86;80.52;100150.31;10335201;28;20130;-55
2023/10/12 11:44:42;;;;;;;12.10;7.80;;;;;;;18.80;81.12;100132.94;10343201;28;20049;-54
2023/10/12 11:49:55;;;;;;;12.48;7.53;;;;;;;18.75;80.52;100118.31;10334363;28;20064;-54
2023/10/12 11:55:18;;;;;;;13.77;8.05;;;;;;;18.86;81.57;100131.44;10339495;28;20050;-56
2023/10/12 12:00:21;;;;;;;13.68;7.88;;;;;;;18.94;79.11;100117.03;10340279;28;20723;-56
2023/10/12 12:05:25;;;;;;;10.27;5.97;;;;;;;18.87;77.80;100101.59;10334631;28;20141;-55
2023/10/12 12:10:37;;;;;;;10.00;6.68;;;;;;;18.85;78.99;100098.22;10342265;28;20045;-58
2023/10/12 12:15:43;;;;;;;10.63;7.53;;;;;;;18.87;79.08;100106.13;10338391;28;20576;-54
2023/10/12 12:20:52;;;;;;;9.65;7.28;;;;;;;18.89;80.43;100087.91;10335265;28;20049;-57
2023/10/12 12:26:05;;;;;;;12.02;7.65;;;;;;;18.80;80.13;100072.81;10345991;28;20049;-54
2023/10/12 12:31:10;;;;;;;15.45;7.30;;;;;;;18.90;80.09;100092.31;10345978;28;20053;-55
2023/10/12 12:36:13;;;;;;;14.13;7.95;;;;;;;18.93;80.19;100073.06;10343456;28;20778;-54
2023/10/12 12:41:23;;;;;;;10.60;7.03;;;;;;;18.82;80.73;100070.75;10363382;28;20882;-56
2023/10/12 12:46:25;;;;;;;10.45;6.45;;;;;;;18.88;81.10;100078.97;10350367;28;20072;-55
2023/10/12 12:51:27;;;;;;;9.02;7.32;;;;;;;18.83;81.48;100067.03;10352953;28;20509;-56
2023/10/12 12:56:29;;;;;;;9.80;6.38;;;;;;;18.97;81.31;100068.94;10357456;28;20053;-55
2023/10/12 13:01:31;;;;;;;10.68;6.78;;;;;;;19.00;82.22;100063.19;10353947;28;20065;-55
2023/10/12 13:06:33;;;;;;;10.50;6.43;;;;;;;19.09;81.99;100055.84;10352407;28;20061;-55
2023/10/12 13:11:35;;;;;;;8.02;6.25;;;;;;;19.20;81.76;100049.16;10345338;28;20054;-54
2023/10/12 13:16:36;;;;;;;10.10;6.80;;;;;;;19.25;81.33;100050.28;10349712;28;20140;-55
2023/10/12 13:21:41;;;;;;;9.75;6.07;;;;;;;19.31;79.75;100037.94;10342931;28;20057;-53
2023/10/12 13:26:43;;;;;;;8.45;6.22;;;;;;;19.38;79.72;100052.34;10341077;28;20180;-56
2023/10/12 13:31:46;;;;;;;8.00;6.05;;;;;;;19.28;78.86;100043.69;10349139;28;20894;-55
2023/10/12 13:36:48;;;;;;;8.30;6.33;;;;;;;19.07;79.18;100057.91;10344284;28;20072;-56
2023/10/12 13:41:49;;;;;;;8.43;6.38;;;;;;;19.06;79.70;100043.56;10335491;28;20046;-56
2023/10/12 13:46:52;;;;;;;15.13;6.25;;;;;;;19.04;79.18;100045.63;10334385;28;20057;-57
2023/10/12 13:51:54;;;;;;;8.10;5.55;;;;;;;18.97;79.76;100055.47;10338497;28;20053;-55
2023/10/12 13:56:58;;;;;;;8.93;5.80;;;;;;;18.87;80.15;100050.34;10336293;28;20062;-55
2023/10/12 14:02:05;;;;;;;9.70;6.57;;;;;;;18.89;86.38;100060.94;10338974;28;20064;-55
2023/10/12 14:07:07;;;;;;;13.00;6.22;;;;;;;18.87;86.89;100053.03;10338109;28;20311;-55
2023/10/12 14:12:10;;;;;;;9.82;6.10;;;;;;;18.55;86.56;100037.94;10341003;28;20144;-55
2023/10/12 14:17:14;;;;;;;10.05;6.53;;;;;;;18.51;87.06;100039.31;10334866;28;20076;-55
2023/10/12 14:22:16;;;;;;;;;;;;;;;18.54;88.40;100063.25;10344787;28;20131;-55
2023/10/12 14:27:18;;;;;;;11.23;6.35;;;;;;;18.52;88.48;100059.88;10331366;28;19925;-55
2023/10/12 14:32:20;;;;;;;9.30;5.60;;;;;;;18.49;86.67;100055.66;10339163;28;20077;-55
2023/10/12 14:37:24;;;;;;;14.40;6.60;;;;;;;18.53;89.19;100053.47;10341932;28;20050;-55
2023/10/12 14:42:28;;;;;;;7.57;5.60;;;;;;;18.61;88.90;100041.78;10338253;28;20054;-55
2023/10/12 14:47:35;;;;;;;6.45;5.10;;;;;;;18.64;88.60;100036.84;10337682;28;20076;-56
2023/10/12 14:52:39;;;;;;;11.88;6.78;;;;;;;18.61;89.73;100031.00;10343513;28;20058;-59
2023/10/12 14:57:41;;;;;;;9.70;7.25;;;;;;;18.73;90.30;100040.31;10337488;28;20132;-55
2023/10/12 15:02:42;;;;;;;11.13;6.60;;;;;;;18.77;90.10;100028.16;10345538;28;20050;-55
2023/10/12 15:07:49;;;;;;;9.38;6.72;;;;;;;18.81;89.49;100042.09;10328963;28;20332;-54
2023/10/12 15:12:51;;;;;;;9.75;5.85;;;;;;;18.73;89.96;100033.09;10338595;28;20096;-55
2023/10/12 15:17:53;;;;;;;10.75;7.55;;;;;;;18.84;89.83;100049.81;10345138;28;20049;-55
2023/10/12 15:22:57;;;;;;;10.30;6.80;;;;;;;18.82;90.52;100049.19;10341504;28;20048;-56
2023/10/12 15:27:59;;;;;;;9.75;6.78;;;;;;;18.77;90.29;100055.13;10332962;28;20135;-56
2023/10/12 15:33:03;;;;;;;10.57;7.57;;;;;;;18.67;91.48;100041.88;10334948;28;20103;-56
2023/10/12 15:38:05;;;;;;;10.18;7.05;;;;;;;18.71;92.57;100051.28;10337479;28;20045;-54
2023/10/12 15:43:15;;;;;;;8.57;7.10;;;;;;;18.74;92.09;100044.69;10333903;28;20203;-54
2023/10/12 15:48:17;;;;;;;8.35;7.15;;;;;;;18.73;92.27;100051.09;10335294;28;21095;-57
2023/10/12 15:53:21;;;;;;;9.20;6.97;;;;;;;18.70;92.97;100044.22;10341295;28;20115;-55
2023/10/12 15:58:22;;;;;;;11.35;7.43;;;;;;;18.65;92.33;100033.16;10326930;28;20570;-55
2023/10/12 16:03:24;;;;;;;8.07;6.40;;;;;;;18.65;91.20;100032.31;10331707;28;20057;-55
2023/10/12 16:08:25;;;;;;;13.00;7.00;;;;;;;18.58;92.49;100020.59;10336208;28;20067;-57
2023/10/12 16:13:27;;;;;;;7.78;6.03;;;;;;;18.68;92.29;100040.03;10338333;28;20076;-55
2023/10/12 16:18:28;;;;;;;8.30;6.43;;;;;;;18.72;92.67;100036.78;10334038;28;20057;-55
2023/10/12 16:23:30;;;;;;;7.88;6.38;;;;;;;18.77;92.96;100051.59;10333486;28;20053;-54
2023/10/12 16:28:32;;;;;;;11.93;7.05;;;;;;;18.61;91.93;100031.81;10338704;28;20703;-55
2023/10/12 16:33:35;;;;;;;7.78;6.90;;;;;;;18.72;92.44;100047.56;10340798;28;20076;-57
2023/10/12 16:38:37;;;;;;;12.27;7.90;;;;;;;18.72;92.49;100047.56;10336351;28;20153;-55
2023/10/12 16:43:38;;;;;;;8.27;6.75;;;;;;;18.75;93.16;100037.44;10339702;28;20092;-54
2023/10/12 16:48:40;;;;;;;9.75;7.32;;;;;;;18.72;92.35;100034.09;10332990;28;20098;-53
2023/10/12 16:53:42;;;;;;;12.43;8.43;;;;;;;18.70;93.21;100033.44;10331814;28;20451;-54
2023/10/12 16:58:44;;;;;;;11.77;8.07;;;;;;;18.58;93.07;100026.78;10332928;28;20204;-54
2023/10/12 17:03:46;;;;;;;12.45;7.80;;;;;;;18.61;91.65;100048.00;10336257;28;20431;-55
2023/10/12 17:08:49;;;;;;;9.98;7.55;;;;;;;18.59;91.97;100041.97;10329570;28;20084;-55
2023/10/12 17:13:51;;;;;;;8.37;7.30;;;;;;;18.59;91.70;100055.44;10342665;28;20492;-54
2023/10/12 17:18:53;;;;;;;13.05;8.80;;;;;;;18.53;90.88;100045.38;10342382;28;20056;-55
2023/10/12 17:23:57;;;;;;;12.90;8.85;;;;;;;18.32;91.24;100017.22;10341971;28;20408;-54
2023/10/12 17:29:03;;;;;;;9.13;7.95;;;;;;;18.46;92.29;100047.13;10340856;28;20060;-54
2023/10/12 17:34:06;;;;;;;11.45;8.57;;;;;;;18.45;92.84;100045.44;10340026;28;20084;-54
2023/10/12 17:39:17;;;;;;;10.77;8.77;;;;;;;18.31;91.62;100047.88;10335926;28;20119;-54
2023/10/12 17:44:20;;;;;;;13.75;9.48;;;;;;;18.27;91.95;100035.81;10344132;28;20626;-54
2023/10/12 17:49:21;;;;;;;13.00;9.55;;;;;;;18.24;92.63;100040.69;10339618;28;20150;-55
2023/10/12 17:54:23;;;;;;;10.98;8.45;;;;;;;18.27;92.64;100057.34;10343857;28;20053;-54
2023/10/12 17:59:26;;;;;;;12.27;8.05;;;;;;;18.23;93.35;100090.22;10341233;28;20605;-53
2023/10/12 18:04:28;;;;;;;12.07;7.88;;;;;;;18.23;93.37;100080.28;10339134;28;20065;-54
2023/10/12 18:09:31;;;;;;;10.80;8.60;;;;;;;18.30;94.26;100070.47;10339212;28;20053;-55
2023/10/12 18:14:32;;;;;;;12.65;8.80;;;;;;;18.45;94.31;100089.41;10344174;28;20846;-55
2023/10/12 18:19:34;;;;;;;10.05;7.63;;;;;;;18.46;93.29;100082.97;10336203;28;20048;-55
2023/10/12 18:24:36;;;;;;;11.50;8.52;;;;;;;18.51;93.88;100095.91;10342108;28;20184;-54
2023/10/12 18:29:41;;;;;;;9.82;8.20;;;;;;;18.55;94.18;100103.50;10341086;28;20088;-55
2023/10/12 18:34:45;;;;;;;13.77;8.90;;;;;;;18.56;93.96;100090.84;10342365;28;20144;-56
2023/10/12 18:39:47;;;;;;;10.82;8.20;;;;;;;18.59;93.98;100093.19;10338512;28;20052;-54
2023/10/12 18:44:49;;;;;;;15.90;9.48;;;;;;;18.62;94.11;100098.19;10342413;28;20057;-56
2023/10/12 18:49:50;;;;;;;11.55;8.95;;;;;;;18.62;94.21;100092.81;10339310;28;20134;-55
2023/10/12 18:55:10;;;;;;;10.63;8.57;;;;;;;18.57;93.74;100084.44;10341115;28;20083;-56
2023/10/12 19:00:22;;;;;;;11.65;9.77;;;;;;;18.48;93.20;100080.09;10346590;28;20556;-54
2023/10/12 19:05:24;;;;;;;14.90;10.02;;;;;;;18.58;94.50;100094.19;10346170;28;20058;-56
2023/10/12 19:10:25;;;;;;;12.77;10.00;;;;;;;18.61;95.04;100080.34;10344224;28;20065;-54
2023/10/12 19:15:30;;;;;;;11.48;10.27;;;;;;;18.63;95.19;100082.84;10341738;28;20171;-59
2023/10/12 19:20:32;;;;;;;12.15;10.90;;;;;;;18.57;95.30;100078.19;10349246;28;22193;-54
2023/10/12 19:25:34;;;;;;;11.32;10.07;;;;;;;18.61;95.46;100099.22;10349035;28;20493;-50
2023/10/12 19:30:35;;;;;;;12.25;8.70;;;;;;;18.62;96.27;100114.38;10342130;28;20045;-50
2023/10/12 19:35:39;;;;;;;13.63;9.68;;;;;;;18.61;95.98;100101.09;10334502;28;20156;-49
2023/10/12 19:40:44;;;;;;;11.07;9.70;;;;;;;18.61;96.56;100095.69;10339844;28;20455;-50
2023/10/12 19:45:46;;;;;;;12.40;10.20;;;;;;;18.60;96.16;100096.69;10338404;28;20238;-49
2023/10/12 19:50:48;;;;;;;11.60;9.75;;;;;;;18.60;96.34;100102.09;10339500;28;20092;-49
2023/10/12 19:55:52;;;;;;;11.00;9.13;;;;;;;18.61;96.78;100090.28;10332678;28;20122;-50
2023/10/12 20:00:55;;;;;;;11.32;10.23;;;;;;;18.61;96.16;100107.31;10341096;28;20052;-49
2023/10/12 20:06:04;;;;;;;14.88;9.85;;;;;;;18.60;96.24;100107.47;10340092;28;20478;-50
2023/10/12 20:11:06;;;;;;;15.27;10.10;;;;;;;18.57;95.35;100111.41;10334372;28;20054;-48
2023/10/12 20:16:11;;;;;;;10.88;9.48;;;;;;;18.58;96.52;100099.56;10337508;28;20065;-51
2023/10/12 20:21:16;;;;;;;12.85;10.18;;;;;;;18.60;96.49;100094.00;10337600;28;20141;-49
2023/10/12 20:26:18;;;;;;;15.15;9.35;;;;;;;18.63;96.69;100101.72;10335603;28;20207;-49
2023/10/12 20:31:19;;;;;;;11.23;9.30;;;;;;;18.58;96.26;100091.50;10330992;28;20370;-50
2023/10/12 20:36:21;;;;;;;11.48;9.75;;;;;;;18.63;96.72;100081.03;10337570;28;20045;-49
2023/10/12 20:41:23;;;;;;;12.80;10.20;;;;;;;18.63;96.95;100085.56;10336360;28;20064;-49
2023/10/12 20:46:24;;;;;;;12.60;10.23;;;;;;;18.58;96.59;100090.66;10341663;28;21003;-50
2023/10/12 20:51:27;;;;;;;11.48;10.30;;;;;;;18.60;96.82;100097.56;10344018;28;20230;-49
2023/10/12 20:56:36;;;;;;;10.18;9.15;;;;;;;18.61;97.17;100110.00;10341899;28;20572;-51
2023/10/12 21:01:48;;;;;;;12.35;9.73;;;;;;;18.61;97.30;100101.09;10350121;28;20049;-50
2023/10/12 21:06:49;;;;;;;12.00;10.68;;;;;;;18.59;96.76;100103.13;10344614;28;20055;-50
2023/10/12 21:11:57;;;;;;;10.88;9.65;;;;;;;18.57;97.25;100103.31;10340475;28;20084;-50
2023/10/12 21:17:04;;;;;;;13.25;9.55;;;;;;;18.59;97.70;100097.75;10344796;28;20417;-49
2023/10/12 21:22:09;;;;;;;13.18;10.15;;;;;;;18.56;97.02;100096.22;10341988;28;20133;-54
2023/10/12 21:27:11;;;;;;;10.70;9.02;;;;;;;18.49;97.34;100076.41;10343770;28;20156;-54
2023/10/12 21:32:22;;;;;;;14.57;9.57;;;;;;;18.47;97.44;100075.75;10343105;28;20089;-54
2023/10/12 21:37:32;;;;;;;11.63;10.27;;;;;;;18.49;96.85;100069.13;10345810;28;20056;-55
2023/10/12 21:42:40;;;;;;;11.43;9.80;;;;;;;18.37;97.06;100049.88;10341734;28;20606;-55
2023/10/12 21:47:41;;;;;;;13.88;9.68;;;;;;;18.23;97.61;100039.88;10348313;28;20745;-54
2023/10/12 21:52:45;;;;;;;11.52;9.80;;;;;;;18.47;97.46;100068.50;10342113;28;20049;-54
2023/10/12 21:57:47;;;;;;;12.93;9.30;;;;;;;18.49;97.42;100085.31;10338175;28;20758;-54
2023/10/12 22:02:54;;;;;;;12.50;8.65;;;;;;;18.50;97.78;100088.88;10338920;28;20045;-53
2023/10/12 22:07:57;;;;;;;11.93;9.23;;;;;;;18.49;97.92;100081.78;10342829;28;20275;-55
2023/10/12 22:13:05;;;;;;;13.05;9.40;;;;;;;18.45;97.11;100075.06;10338648;28;20050;-54
2023/10/12 22:18:07;;;;;;;11.02;8.65;;;;;;;18.44;97.43;100073.41;10338630;28;20056;-53
2023/10/12 22:23:09;;;;;;;11.18;9.32;;;;;;;18.43;97.46;100077.13;10339481;28;20289;-52
2023/10/12 22:28:11;;;;;;;11.75;8.23;;;;;;;18.42;97.74;100083.50;10339097;28;20060;-54
2023/10/12 22:33:12;;;;;;;12.13;8.95;;;;;;;18.42;97.80;100091.59;10337962;28;20057;-55
2023/10/12 22:38:14;;;;;;;12.40;9.27;;;;;;;18.37;97.56;100095.69;10338555;28;20085;-54
2023/10/12 22:43:15;;;;;;;13.40;9.32;;;;;;;18.37;98.19;100090.31;10345861;28;20049;-54
2023/10/12 22:48:18;;;;;;;11.57;8.65;;;;;;;18.36;98.09;100088.63;10333605;28;20290;-53
2023/10/12 22:53:19;;;;;;;12.00;8.18;;;;;;;18.22;97.79;100073.19;10341734;28;20145;-53
2023/10/12 22:58:21;;;;;;;11.38;7.30;;;;;;;18.24;98.55;100087.34;10340779;28;20061;-54
2023/10/12 23:03:22;;;;;;;11.45;6.85;;;;;;;18.26;98.58;100089.88;10338151;28;20054;-53
2023/10/12 23:08:26;;;;;;;11.43;7.03;;;;;;;18.28;98.32;100079.75;10334716;28;20045;-54
2023/10/12 23:13:31;;;;;;;12.82;6.72;;;;;;;18.28;98.41;100083.25;10341848;28;20111;-54
2023/10/12 23:18:33;;;;;;;11.27;6.55;;;;;;;18.09;98.45;100044.16;10337783;28;20057;-54
2023/10/12 23:23:36;;;;;;;7.70;6.90;;;;;;;18.31;98.65;100074.81;10334171;28;20190;-59
2023/10/12 23:28:38;;;;;;;8.65;6.72;;;;;;;18.30;97.90;100077.69;10332923;28;20076;-54
2023/10/12 23:33:44;;;;;;;8.00;6.25;;;;;;;18.28;98.06;100079.75;10337241;28;20046;-54
2023/10/12 23:44:18;;;;;;;8.38;6.43;;;;;;;18.28;98.67;100080.56;10334675;28;20038;-54
2023/10/12 23:49:20;;;;;;;8.60;6.00;;;;;;;18.27;98.99;100060.06;10329851;28;20050;-55
2023/10/12 23:54:25;;;;;;;6.78;5.38;;;;;;;18.36;98.74;100077.00;10333556;28;20056;-55
2023/10/12 23:59:29;;;;;;;8.80;5.88;;;;;;;18.36;98.67;100085.91;10335680;28;20136;-54
